Terminal Aerodrome Forecast
Issued by NWS

Home | Current Version | Previous Version | Text Only | Print | Product List | Glossary On
Versions: 1 2 3 4 5 6 7 8 9 10 11 12 13 14
000
FTUS45 KTFX 231100
TAFHLN
TAF
KHLN 231124Z 2312/2412 VRB05KT P6SM BKN090
     FM231300 VRB06KT P6SM SCT120 SCT250
     FM232000 19008KT P6SM SCT100 SCT150 BKN250
      TEMPO 2321/2401 VRB25G35KT -TSRA BKN050CB
     FM240100 VRB06KT P6SM SCT100 SCT150
     FM240400 25008KT P6SM SKC=

USA.gov is the U.S. government's official web portal to all federal, state and local government web resources and services.